Time;durP1;ratioP1;P1;durP2;ratioP2;P2;SDS_P1;SDS_P2;PMS_P1;PMS_P2;Temp;Humidity;BMP_temperature;BMP_pressure;BME280_temperature;BME280_humidity;BME280_pressure;Samples;Min_cycle;Max_cycle;Signal;HPM_P1;HPM_P2
2022/09/24 00:01:14;;;;;;;2.33;2.13;;;;;;;;;;12638812;28;20032;-77
2022/09/24 00:07:16;;;;;;;2.58;2.38;;;;;;;;;;12620876;28;20043;-78
2022/09/24 00:13:18;;;;;;;2.90;2.70;;;;;;;;;;12639905;28;20499;-78
2022/09/24 00:19:20;;;;;;;2.60;2.40;;;;;;;;;;12621182;28;20036;-78
2022/09/24 00:31:42;;;;;;;2.67;2.47;;;;;;;;;;12619101;28;20085;-77
2022/09/24 00:37:43;;;;;;;2.90;2.70;;;;;;;;;;12601870;28;20043;-78
2022/09/24 00:43:46;;;;;;;2.83;2.63;;;;;;;;;;12601913;28;20456;-77
2022/09/24 00:49:49;;;;;;;2.42;2.22;;;;;;;;;;12618768;28;20422;-77
2022/09/24 00:55:53;;;;;;;2.90;2.70;;;;;;;;;;12618756;28;20044;-77
2022/09/24 01:01:57;;;;;;;3.25;2.95;;;;;;;;;;12601451;28;20635;-77
2022/09/24 01:07:59;;;;;;;2.72;2.53;;;;;;;;;;12635589;28;20043;-77
2022/09/24 01:14:13;;;;;;;3.03;2.83;;;;;;;;;;12617169;28;20477;-77
2022/09/24 01:20:21;;;;;;;3.25;2.95;;;;;;;;;;12635830;28;20059;-77
2022/09/24 01:26:27;;;;;;;2.88;2.67;;;;;;;;;;12634986;28;20048;-77
2022/09/24 01:32:44;;;;;;;3.05;2.83;;;;;;;;;;12599073;28;20469;-78
2022/09/24 01:38:47;;;;;;;2.72;2.53;;;;;;;;;;12615558;28;20136;-77
2022/09/24 01:44:49;;;;;;;3.17;2.97;;;;;;;;;;12631945;28;20035;-77
2022/09/24 01:50:57;;;;;;;3.15;2.95;;;;;;;;;;12612313;28;20448;-77
2022/09/24 01:57:21;;;;;;;3.28;2.97;;;;;;;;;;12631711;28;20044;-78
2022/09/24 02:03:28;;;;;;;3.28;3.05;;;;;;;;;;12590888;28;20051;-77
2022/09/24 02:09:33;;;;;;;3.15;2.85;;;;;;;;;;12612480;28;20070;-77
2022/09/24 02:15:38;;;;;;;3.75;3.42;;;;;;;;;;12611349;28;20537;-77
2022/09/24 02:21:40;;;;;;;3.75;3.45;;;;;;;;;;12630581;28;20031;-77
2022/09/24 02:27:42;;;;;;;3.53;3.33;;;;;;;;;;12611641;28;20413;-77
2022/09/24 02:40:08;;;;;;;3.33;3.13;;;;;;;;;;12610847;28;20051;-77
2022/09/24 02:46:10;;;;;;;3.67;3.38;;;;;;;;;;12610801;28;20032;-76
2022/09/24 02:52:12;;;;;;;3.40;3.15;;;;;;;;;;12594086;28;20059;-77
2022/09/24 02:58:14;;;;;;;3.33;3.08;;;;;;;;;;12628907;28;20051;-77
2022/09/24 03:04:16;;;;;;;3.47;3.20;;;;;;;;;;12600979;28;20389;-77
2022/09/24 03:10:18;;;;;;;3.90;3.60;;;;;;;;;;12620085;28;20028;-78
2022/09/24 03:16:20;;;;;;;4.15;3.85;;;;;;;;;;12637871;28;20062;-77
2022/09/24 03:22:22;;;;;;;4.20;3.90;;;;;;;;;;12619212;28;20040;-77
2022/09/24 03:28:24;;;;;;;4.32;3.92;;;;;;;;;;12601476;28;20362;-78
2022/09/24 03:34:25;;;;;;;3.75;3.45;;;;;;;;;;12618441;28;20055;-79
2022/09/24 03:40:27;;;;;;;3.50;3.28;;;;;;;;;;12617932;28;20490;-78
2022/09/24 03:46:29;;;;;;;3.50;3.30;;;;;;;;;;12601526;28;20040;-78
2022/09/24 03:52:31;;;;;;;3.63;3.33;;;;;;;;;;12601086;28;20071;-78
2022/09/24 03:58:37;;;;;;;3.58;3.28;;;;;;;;;;12634862;28;20297;-78
2022/09/24 04:04:39;;;;;;;3.40;3.20;;;;;;;;;;12617519;28;20050;-78
2022/09/24 04:10:41;;;;;;;3.53;3.23;;;;;;;;;;12600506;28;20435;-78
2022/09/24 04:16:44;;;;;;;3.73;3.23;;;;;;;;;;12634395;28;20040;-79
2022/09/24 04:22:46;;;;;;;2.95;2.70;;;;;;;;;;12599752;28;20158;-79
2022/09/24 04:28:49;;;;;;;3.03;2.83;;;;;;;;;;12634793;28;20039;-79
2022/09/24 04:34:50;;;;;;;3.15;2.85;;;;;;;;;;12616011;28;20020;-78
2022/09/24 04:40:53;;;;;;;3.33;3.10;;;;;;;;;;12615538;28;20385;-78
2022/09/24 04:47:00;;;;;;;2.90;2.70;;;;;;;;;;12614793;28;20334;-79
2022/09/24 04:53:02;;;;;;;3.20;3.00;;;;;;;;;;12598051;28;20084;-78
2022/09/24 04:59:04;;;;;;;4.03;3.73;;;;;;;;;;12597827;28;20039;-79
2022/09/24 05:05:06;;;;;;;;;;;;;;;;;;12633228;28;20035;-78
2022/09/24 05:11:08;;;;;;;3.50;3.20;;;;;;;;;;12597224;28;19908;-78
2022/09/24 05:17:10;;;;;;;3.67;3.37;;;;;;;;;;12631786;28;20043;-78
2022/09/24 05:23:11;;;;;;;3.35;2.92;;;;;;;;;;12631602;28;20082;-78
2022/09/24 05:29:14;;;;;;;3.65;3.35;;;;;;;;;;12630144;28;20032;-78
2022/09/24 05:35:17;;;;;;;3.50;3.20;;;;;;;;;;12595766;28;20036;-80
2022/09/24 05:41:19;;;;;;;3.75;3.45;;;;;;;;;;12629368;28;20032;-77
2022/09/24 05:47:21;;;;;;;3.70;3.40;;;;;;;;;;12629202;28;20059;-78
2022/09/24 05:53:23;;;;;;;3.63;3.33;;;;;;;;;;12630598;28;20032;-77
2022/09/24 05:59:24;;;;;;;3.53;3.22;;;;;;;;;;12629938;28;20068;-78
2022/09/24 06:05:27;;;;;;;3.87;3.57;;;;;;;;;;12629414;28;20036;-78
2022/09/24 06:11:35;;;;;;;5.05;4.65;;;;;;;;;;12629066;28;20293;-78
2022/09/24 06:17:37;;;;;;;7.53;6.88;;;;;;;;;;12629838;28;20054;-77
2022/09/24 06:23:39;;;;;;;5.43;5.03;;;;;;;;;;12611109;28;20036;-78
2022/09/24 06:29:40;;;;;;;5.57;4.20;;;;;;;;;;12611563;28;20031;-78
2022/09/24 06:35:43;;;;;;;4.50;4.10;;;;;;;;;;12612444;28;20477;-79
2022/09/24 06:41:45;;;;;;;;;;;;;;;;;;12605511;28;20036;-79
2022/09/24 06:47:52;;;;;;;5.10;4.70;;;;;;;;;;12620598;28;19926;-78
2022/09/24 06:53:54;;;;;;;5.72;5.05;;;;;;;;;;12638990;28;20028;-79
2022/09/24 06:59:56;;;;;;;5.20;4.80;;;;;;;;;;12638559;28;20481;-78
2022/09/24 07:06:02;;;;;;;5.00;4.30;;;;;;;;;;12619683;28;20028;-79
2022/09/24 07:12:07;;;;;;;5.28;4.80;;;;;;;;;;12637102;28;20036;-78
2022/09/24 07:18:09;;;;;;;5.63;5.22;;;;;;;;;;12637217;28;20041;-79
2022/09/24 07:24:11;;;;;;;5.17;4.77;;;;;;;;;;12617523;28;20036;-78
2022/09/24 07:30:13;;;;;;;4.30;4.00;;;;;;;;;;12617968;28;20456;-78
2022/09/24 07:36:34;;;;;;;6.20;5.60;;;;;;;;;;12620905;28;20456;-76
2022/09/24 07:42:37;;;;;;;5.20;4.70;;;;;;;;;;12601917;28;20032;-77
2022/09/24 07:48:39;;;;;;;6.00;5.50;;;;;;;;;;12635570;28;20158;-78
2022/09/24 07:54:41;;;;;;;5.03;4.63;;;;;;;;;;12600922;28;20025;-76
2022/09/24 08:00:43;;;;;;;5.17;4.67;;;;;;;;;;12617291;28;20058;-76
2022/09/24 08:07:03;;;;;;;6.72;6.00;;;;;;;;;;12635272;28;20123;-76
2022/09/24 08:13:05;;;;;;;6.50;5.90;;;;;;;;;;12634136;28;20039;-76
2022/09/24 08:19:12;;;;;;;4.90;4.50;;;;;;;;;;12599317;28;20040;-76
2022/09/24 08:25:14;;;;;;;5.82;4.45;;;;;;;;;;12613951;28;20793;-77
2022/09/24 08:31:17;;;;;;;4.97;4.55;;;;;;;;;;12633010;28;20334;-77
2022/09/24 08:37:22;;;;;;;5.93;5.13;;;;;;;;;;12631719;28;20055;-76
2022/09/24 08:43:32;;;;;;;6.40;5.87;;;;;;;;;;12614886;28;20043;-75
2022/09/24 08:49:41;;;;;;;4.35;3.90;;;;;;;;;;12598840;28;20467;-77
2022/09/24 08:55:49;;;;;;;3.40;2.85;;;;;;;;;;12614893;28;20075;-79
2022/09/24 09:01:54;;;;;;;4.28;3.15;;;;;;;;;;12614736;28;20043;-77
2022/09/24 09:08:00;;;;;;;2.92;2.63;;;;;;;;;;12632696;28;20158;-78
2022/09/24 09:14:17;;;;;;;2.88;2.67;;;;;;;;;;12613468;28;20111;-77
2022/09/24 09:20:22;;;;;;;2.30;2.10;;;;;;;;;;12613532;28;20503;-78
2022/09/24 09:26:25;;;;;;;2.40;1.92;;;;;;;;;;12596597;28;20415;-78
2022/09/24 09:32:39;;;;;;;1.60;1.50;;;;;;;;;;12614419;28;20488;-79
2022/09/24 09:38:50;;;;;;;2.20;1.70;;;;;;;;;;12633863;28;20087;-78
2022/09/24 09:44:53;;;;;;;3.20;2.20;;;;;;;;;;12614676;28;20127;-77
2022/09/24 09:51:05;;;;;;;1.88;1.70;;;;;;;;;;12612943;28;20048;-79
2022/09/24 09:57:09;;;;;;;1.70;1.35;;;;;;;;;;12612740;28;20402;-79
2022/09/24 10:03:24;;;;;;;1.60;1.33;;;;;;;;;;12631633;28;20031;-78
2022/09/24 10:09:25;;;;;;;1.77;1.33;;;;;;;;;;12629350;28;20090;-79
2022/09/24 10:15:27;;;;;;;2.88;2.05;;;;;;;;;;12611579;28;20484;-79
2022/09/24 10:21:33;;;;;;;2.07;1.97;;;;;;;;;;12612000;28;20110;-78
2022/09/24 10:27:36;;;;;;;3.97;2.97;;;;;;;;;;12613394;28;20039;-79
2022/09/24 10:33:40;;;;;;;2.38;2.17;;;;;;;;;;12630792;28;20036;-78
2022/09/24 10:39:42;;;;;;;2.50;1.88;;;;;;;;;;12613675;28;20044;-79
2022/09/24 10:45:43;;;;;;;1.77;1.50;;;;;;;;;;12613348;28;20039;-79
2022/09/24 10:51:51;;;;;;;1.63;1.43;;;;;;;;;;12631251;28;20052;-79
2022/09/24 10:58:03;;;;;;;1.92;1.55;;;;;;;;;;12612314;28;20329;-78
2022/09/24 11:04:16;;;;;;;1.85;1.55;;;;;;;;;;12630593;28;20036;-78
2022/09/24 11:10:18;;;;;;;1.73;1.63;;;;;;;;;;12595821;28;20048;-78
2022/09/24 11:16:26;;;;;;;2.50;1.70;;;;;;;;;;12613161;28;20040;-78
2022/09/24 11:23:00;;;;;;;1.60;1.50;;;;;;;;;;12615791;28;20126;-78
2022/09/24 11:29:02;;;;;;;1.98;1.65;;;;;;;;;;12596308;28;20097;-78
2022/09/24 11:35:05;;;;;;;1.88;1.77;;;;;;;;;;12605932;28;20028;-79
2022/09/24 11:41:25;;;;;;;2.60;1.48;;;;;;;;;;12639996;28;20178;-78
2022/09/24 11:47:39;;;;;;;3.97;2.00;;;;;;;;;;12620540;28;20357;-78
2022/09/24 11:53:47;;;;;;;2.67;2.10;;;;;;;;;;12639188;28;20469;-79
2022/09/24 11:59:52;;;;;;;1.30;1.20;;;;;;;;;;12620625;28;20048;-79
2022/09/24 12:05:58;;;;;;;1.73;1.63;;;;;;;;;;12604004;28;20043;-78
2022/09/24 12:12:08;;;;;;;2.97;2.10;;;;;;;;;;12638063;28;20054;-78
2022/09/24 12:18:25;;;;;;;3.10;2.10;;;;;;;;;;12620845;28;20040;-78
2022/09/24 12:24:30;;;;;;;2.17;1.70;;;;;;;;;;12639256;28;20515;-78
2022/09/24 12:37:13;;;;;;;1.92;1.83;;;;;;;;;;12636864;28;20466;-78
2022/09/24 12:43:47;;;;;;;1.73;1.63;;;;;;;;;;12637293;28;20047;-78
2022/09/24 12:49:54;;;;;;;1.83;1.55;;;;;;;;;;12592419;28;20051;-78
2022/09/24 12:55:59;;;;;;;1.60;1.50;;;;;;;;;;12617656;28;20062;-78
2022/09/24 13:02:14;;;;;;;1.88;1.65;;;;;;;;;;12636135;28;20040;-79
2022/09/24 13:08:16;;;;;;;2.45;1.40;;;;;;;;;;12636062;28;20032;-78
2022/09/24 13:14:26;;;;;;;1.93;1.73;;;;;;;;;;12634956;28;20024;-80
2022/09/24 13:20:28;;;;;;;2.35;1.40;;;;;;;;;;12636080;28;20044;-78
2022/09/24 13:26:33;;;;;;;2.17;1.83;;;;;;;;;;12633974;28;20052;-78
2022/09/24 13:32:48;;;;;;;2.03;1.80;;;;;;;;;;12615805;28;20087;-77
2022/09/24 13:38:51;;;;;;;1.38;1.20;;;;;;;;;;12615678;28;20044;-77
2022/09/24 13:44:52;;;;;;;;;;;;;;;;;;12633721;28;20035;-78
2022/09/24 13:50:54;;;;;;;1.42;1.33;;;;;;;;;;12599435;28;20336;-78
2022/09/24 13:57:06;;;;;;;1.42;1.33;;;;;;;;;;12615080;28;20057;-77
2022/09/24 14:03:25;;;;;;;1.97;1.20;;;;;;;;;;12599006;28;20083;-78
2022/09/24 14:09:27;;;;;;;1.17;1.08;;;;;;;;;;12633377;28;20330;-79
2022/09/24 14:15:28;;;;;;;1.30;1.10;;;;;;;;;;12632909;28;20036;-79
2022/09/24 14:21:36;;;;;;;1.30;1.20;;;;;;;;;;12616011;28;20036;-77
2022/09/24 14:27:41;;;;;;;1.23;0.90;;;;;;;;;;12614865;28;20032;-79
2022/09/24 14:33:43;;;;;;;1.10;1.00;;;;;;;;;;12633493;28;20381;-78
2022/09/24 14:39:46;;;;;;;2.55;0.90;;;;;;;;;;12633192;28;20040;-79
2022/09/24 14:45:50;;;;;;;1.00;1.00;;;;;;;;;;12614187;28;20043;-78
2022/09/24 14:51:53;;;;;;;0.85;0.82;;;;;;;;;;12612224;28;20063;-76
2022/09/24 14:57:55;;;;;;;1.05;0.98;;;;;;;;;;12634336;28;20446;-77
2022/09/24 15:03:59;;;;;;;1.20;1.10;;;;;;;;;;12622291;28;20051;-77
2022/09/24 15:10:02;;;;;;;1.05;1.00;;;;;;;;;;12639853;28;20106;-78
2022/09/24 15:16:04;;;;;;;1.40;1.30;;;;;;;;;;12639735;28;20044;-79
2022/09/24 15:22:06;;;;;;;;;;;;;;;;;;12640525;28;20040;-77
2022/09/24 15:28:13;;;;;;;1.58;1.40;;;;;;;;;;12621732;28;19923;-76
2022/09/24 15:34:15;;;;;;;1.70;1.60;;;;;;;;;;12621107;28;20059;-75
2022/09/24 15:40:24;;;;;;;1.58;1.48;;;;;;;;;;12638425;28;20535;-76
2022/09/24 15:46:26;;;;;;;1.83;1.65;;;;;;;;;;12619790;28;20040;-77
2022/09/24 15:52:28;;;;;;;1.63;1.52;;;;;;;;;;12638697;28;20060;-78
2022/09/24 15:58:29;;;;;;;1.80;1.70;;;;;;;;;;12620537;28;20416;-76
2022/09/24 16:04:31;;;;;;;2.07;1.50;;;;;;;;;;12620859;28;20109;-77
2022/09/24 16:10:33;;;;;;;1.67;1.57;;;;;;;;;;12637225;28;20373;-79
2022/09/24 16:16:35;;;;;;;2.00;1.90;;;;;;;;;;12638773;28;20326;-77
2022/09/24 16:22:36;;;;;;;2.90;2.57;;;;;;;;;;12637495;28;20123;-76
2022/09/24 16:28:38;;;;;;;2.63;2.43;;;;;;;;;;12619723;28;20044;-77
2022/09/24 16:34:40;;;;;;;2.30;2.20;;;;;;;;;;12603261;28;20084;-77
2022/09/24 16:40:43;;;;;;;1.90;1.80;;;;;;;;;;12601962;28;20612;-77
2022/09/24 16:46:44;;;;;;;2.63;2.28;;;;;;;;;;12618957;28;20496;-81
2022/09/24 16:52:48;;;;;;;2.30;2.10;;;;;;;;;;12602079;28;20383;-76
2022/09/24 16:58:51;;;;;;;2.60;2.45;;;;;;;;;;12619452;28;20051;-76
2022/09/24 17:04:54;;;;;;;2.80;2.60;;;;;;;;;;12618459;28;20067;-76
2022/09/24 17:10:56;;;;;;;3.05;2.50;;;;;;;;;;12637028;28;20035;-77
2022/09/24 17:16:58;;;;;;;20.03;18.57;;;;;;;;;;12601364;28;20043;-76
2022/09/24 17:23:00;;;;;;;32.27;29.90;;;;;;;;;;12617798;28;20062;-75
2022/09/24 17:29:01;;;;;;;151.80;141.03;;;;;;;;;;12615902;28;20046;-75
2022/09/24 17:35:03;;;;;;;380.87;353.67;;;;;;;;;;12599630;28;20130;-75
2022/09/24 17:41:06;;;;;;;208.13;194.70;;;;;;;;;;12616510;28;20088;-76
2022/09/24 17:47:08;;;;;;;93.35;87.30;;;;;;;;;;12633341;28;20095;-76
2022/09/24 17:53:10;;;;;;;53.75;50.25;;;;;;;;;;12616043;28;20032;-77
2022/09/24 17:59:13;;;;;;;34.45;32.17;;;;;;;;;;12633722;28;20036;-76
2022/09/24 18:05:16;;;;;;;66.03;60.20;;;;;;;;;;12616738;28;20441;-76
2022/09/24 18:11:23;;;;;;;77.57;69.35;;;;;;;;;;12615827;28;20063;-76
2022/09/24 18:17:26;;;;;;;89.82;79.93;;;;;;;;;;12599143;28;20040;-76
2022/09/24 18:23:30;;;;;;;51.47;45.83;;;;;;;;;;12615133;28;20479;-76
2022/09/24 18:29:31;;;;;;;34.42;30.83;;;;;;;;;;12615723;28;20083;-76
2022/09/24 18:35:34;;;;;;;22.23;19.97;;;;;;;;;;12642847;28;20092;-76
2022/09/24 18:41:36;;;;;;;16.73;15.00;;;;;;;;;;12625484;28;20040;-76
2022/09/24 18:47:38;;;;;;;12.60;11.40;;;;;;;;;;12625319;28;20512;-77
2022/09/24 18:53:42;;;;;;;8.80;7.97;;;;;;;;;;12642995;28;20127;-76
2022/09/24 18:59:45;;;;;;;7.43;6.72;;;;;;;;;;12643098;28;20063;-77
2022/09/24 19:05:51;;;;;;;6.25;5.68;;;;;;;;;;12642888;28;20433;-77
2022/09/24 19:11:54;;;;;;;5.25;4.45;;;;;;;;;;12624363;28;20384;-76
2022/09/24 19:17:57;;;;;;;4.50;4.10;;;;;;;;;;12606361;28;20059;-75
2022/09/24 19:23:59;;;;;;;;;;;;;;;;;;12641072;28;20043;-75
2022/09/24 19:30:04;;;;;;;4.50;3.63;;;;;;;;;;12640123;28;19911;-77
2022/09/24 19:36:09;;;;;;;4.45;3.45;;;;;;;;;;12620991;28;20419;-77
2022/09/24 19:42:11;;;;;;;3.85;3.55;;;;;;;;;;12639895;28;20118;-77
2022/09/24 19:48:14;;;;;;;4.38;3.97;;;;;;;;;;12620543;28;20044;-76
2022/09/24 19:54:16;;;;;;;4.53;4.13;;;;;;;;;;12621004;28;20040;-77
2022/09/24 20:00:22;;;;;;;5.10;4.15;;;;;;;;;;12639146;28;20056;-75
2022/09/24 20:06:27;;;;;;;4.40;4.10;;;;;;;;;;12603297;28;20072;-79
2022/09/24 20:12:30;;;;;;;3.92;3.53;;;;;;;;;;12619879;28;20408;-81
2022/09/24 20:18:33;;;;;;;3.95;3.65;;;;;;;;;;12620748;28;20055;-80
2022/09/24 20:24:36;;;;;;;3.90;3.60;;;;;;;;;;12617366;28;20059;-77
2022/09/24 20:30:38;;;;;;;;;;;;;;;;;;12636619;28;20043;-77
2022/09/24 20:36:41;;;;;;;3.47;3.17;;;;;;;;;;12636048;28;19930;-78
2022/09/24 20:42:43;;;;;;;3.15;2.83;;;;;;;;;;12636024;28;20361;-76
2022/09/24 20:48:46;;;;;;;5.47;4.97;;;;;;;;;;12635468;28;20052;-76
2022/09/24 20:54:50;;;;;;;4.97;4.38;;;;;;;;;;12635816;28;20406;-77
2022/09/24 21:00:55;;;;;;;5.88;5.38;;;;;;;;;;12617566;28;20039;-77
2022/09/24 21:06:58;;;;;;;6.53;5.65;;;;;;;;;;12635829;28;20044;-77
2022/09/24 21:13:00;;;;;;;4.95;4.32;;;;;;;;;;12635716;28;20032;-77
2022/09/24 21:19:06;;;;;;;3.85;3.55;;;;;;;;;;12636614;28;20077;-76
2022/09/24 21:25:09;;;;;;;3.80;3.50;;;;;;;;;;12600207;28;20036;-76
2022/09/24 21:31:14;;;;;;;3.53;3.33;;;;;;;;;;12634831;28;20102;-78
2022/09/24 21:37:16;;;;;;;4.13;3.75;;;;;;;;;;12634604;28;20393;-77
2022/09/24 21:43:22;;;;;;;;;;;;;;;;;;12616031;28;20059;-76
2022/09/24 21:49:25;;;;;;;4.82;4.43;;;;;;;;;;12615097;28;20021;-78
2022/09/24 21:55:29;;;;;;;5.97;5.38;;;;;;;;;;12597716;28;20066;-77
2022/09/24 22:01:32;;;;;;;6.45;5.85;;;;;;;;;;12633263;28;20040;-76
2022/09/24 22:07:37;;;;;;;7.20;6.60;;;;;;;;;;12614344;28;20032;-76
2022/09/24 22:13:40;;;;;;;4.97;4.57;;;;;;;;;;12599712;28;20036;-78
2022/09/24 22:19:43;;;;;;;3.70;3.50;;;;;;;;;;12633971;28;20071;-77
2022/09/24 22:25:47;;;;;;;4.90;4.50;;;;;;;;;;12598902;28;20150;-77
2022/09/24 22:31:49;;;;;;;5.32;4.93;;;;;;;;;;12633687;28;20032;-77
2022/09/24 22:37:52;;;;;;;5.03;4.63;;;;;;;;;;12633275;28;20048;-77
2022/09/24 22:43:56;;;;;;;5.20;4.80;;;;;;;;;;12633321;28;20028;-77
2022/09/24 22:49:58;;;;;;;4.72;4.32;;;;;;;;;;12615130;28;20059;-76
2022/09/24 22:56:07;;;;;;;5.28;4.88;;;;;;;;;;12615411;28;20040;-76
2022/09/24 23:02:09;;;;;;;4.05;3.75;;;;;;;;;;12598397;28;20035;-77
2022/09/24 23:08:11;;;;;;;3.87;3.63;;;;;;;;;;12632689;28;20036;-77
2022/09/24 23:14:14;;;;;;;3.70;3.40;;;;;;;;;;12614666;28;20502;-78
2022/09/24 23:20:16;;;;;;;4.63;4.30;;;;;;;;;;12639783;28;20051;-76
2022/09/24 23:26:19;;;;;;;4.27;3.83;;;;;;;;;;12641690;28;20048;-76
2022/09/24 23:32:21;;;;;;;4.15;3.75;;;;;;;;;;12641318;28;20037;-75
2022/09/24 23:38:23;;;;;;;6.23;5.73;;;;;;;;;;12623323;28;20044;-77
2022/09/24 23:44:25;;;;;;;7.60;7.00;;;;;;;;;;12640913;28;20028;-76
2022/09/24 23:50:27;;;;;;;6.80;6.30;;;;;;;;;;12622847;28;20078;-77
2022/09/24 23:56:28;;;;;;;5.78;5.38;;;;;;;;;;12639318;28;20043;-77
